Time;durP1;ratioP1;P1;durP2;ratioP2;P2;SDS_P1;SDS_P2;PMS_P1;PMS_P2;Temp;Humidity;BMP_temperature;BMP_pressure;BME280_temperature;BME280_humidity;BME280_pressure;Samples;Min_cycle;Max_cycle;Signal;HPM_P1;HPM_P2
2021/06/24 00:04:18;;;;;;;24.23;15.30;;;15.20;99.90;;;;;;6773390;87;20183;-77
2021/06/24 00:14:18;;;;;;;27.62;15.70;;;15.30;99.90;;;;;;6773094;87;20180;-77
2021/06/24 00:24:19;;;;;;;29.98;17.10;;;15.20;99.90;;;;;;6773022;87;20303;-77
2021/06/24 00:34:19;;;;;;;28.48;16.65;;;15.50;99.90;;;;;;6773442;87;20347;-77
2021/06/24 00:44:20;;;;;;;23.33;16.08;;;15.30;99.90;;;;;;6773003;87;20183;-78
2021/06/24 00:54:20;;;;;;;21.90;15.02;;;15.20;99.90;;;;;;6772466;87;20612;-78
2021/06/24 01:04:22;;;;;;;22.60;15.85;;;15.20;99.90;;;;;;6774514;87;20216;-78
2021/06/24 01:14:23;;;;;;;22.98;14.87;;;15.30;99.90;;;;;;6775981;87;20196;-77
2021/06/24 01:24:23;;;;;;;24.27;15.48;;;15.50;99.90;;;;;;6775803;87;20222;-77
2021/06/24 01:34:24;;;;;;;28.85;16.10;;;15.40;99.90;;;;;;6776014;87;20221;-78
2021/06/24 01:44:31;;;;;;;21.92;15.02;;;15.40;99.90;;;;;;6775645;87;20191;-77
2021/06/24 01:54:32;;;;;;;25.20;15.35;;;15.30;99.90;;;;;;6775330;87;20219;-77
2021/06/24 02:04:32;;;;;;;27.13;15.48;;;15.40;99.90;;;;;;6775196;87;20236;-78
2021/06/24 02:14:33;;;;;;;23.52;15.00;;;15.30;99.90;;;;;;6775441;87;20318;-78
2021/06/24 02:24:34;;;;;;;23.80;15.38;;;15.40;99.90;;;;;;6775423;87;20324;-78
2021/06/24 02:34:36;;;;;;;25.52;15.00;;;15.30;99.90;;;;;;6775850;87;20258;-77
2021/06/24 02:44:36;;;;;;;23.73;14.45;;;15.60;99.90;;;;;;6770330;87;20277;-78
2021/06/24 02:54:37;;;;;;;19.90;13.43;;;15.50;99.90;;;;;;6774148;87;20296;-77
2021/06/24 03:04:38;;;;;;;33.78;18.40;;;15.50;99.90;;;;;;6775536;87;20268;-77
2021/06/24 03:14:38;;;;;;;32.65;19.20;;;15.30;99.90;;;;;;6772928;87;20286;-77
2021/06/24 03:24:40;;;;;;;32.60;19.40;;;14.80;99.90;;;;;;6786091;87;20827;-76
2021/06/24 03:34:41;;;;;;;28.60;19.77;;;14.60;99.90;;;;;;6779233;87;20275;-77
2021/06/24 03:44:41;;;;;;;34.35;21.05;;;14.60;99.90;;;;;;6787021;87;20639;-78
2021/06/24 03:54:42;;;;;;;38.28;19.85;;;14.50;99.90;;;;;;6780232;87;20769;-77
2021/06/24 04:04:42;;;;;;;39.33;20.50;;;14.50;99.90;;;;;;6778799;87;20205;-77
2021/06/24 04:14:43;;;;;;;34.80;21.30;;;14.50;99.90;;;;;;6776479;87;20191;-78
2021/06/24 04:24:43;;;;;;;30.77;19.02;;;14.40;99.90;;;;;;6779176;87;20218;-77
2021/06/24 04:34:44;;;;;;;35.47;20.40;;;14.60;99.90;;;;;;6779555;87;20192;-77
2021/06/24 04:44:44;;;;;;;35.67;20.33;;;14.60;99.90;;;;;;6776502;87;20551;-78
2021/06/24 04:54:45;;;;;;;31.50;20.67;;;14.60;99.90;;;;;;6774018;87;20188;-77
2021/06/24 05:04:46;;;;;;;32.35;18.77;;;14.70;99.90;;;;;;6771155;87;20218;-77
2021/06/24 05:14:46;;;;;;;32.92;20.15;;;15.00;99.90;;;;;;6771189;87;20179;-77
2021/06/24 05:24:47;;;;;;;29.73;19.67;;;14.90;99.90;;;;;;6770874;87;20698;-77
2021/06/24 05:34:47;;;;;;;32.30;20.15;;;15.00;99.90;;;;;;6771065;87;20332;-77
2021/06/24 05:44:48;;;;;;;35.25;19.52;;;15.10;99.90;;;;;;6766232;87;20229;-77
2021/06/24 05:54:49;;;;;;;28.75;18.62;;;15.30;99.90;;;;;;6772188;87;20201;-79
2021/06/24 06:04:49;;;;;;;26.95;17.87;;;15.40;99.90;;;;;;6778106;87;20747;-77
2021/06/24 06:14:50;;;;;;;31.40;17.30;;;15.60;99.90;;;;;;6773898;87;20240;-78
2021/06/24 06:24:51;;;;;;;26.75;18.23;;;15.80;99.90;;;;;;6773161;87;20183;-78
2021/06/24 06:34:52;;;;;;;27.00;18.05;;;15.90;99.90;;;;;;6775197;87;20192;-78
2021/06/24 06:44:52;;;;;;;31.50;18.50;;;16.10;99.90;;;;;;6757404;88;20317;-78
2021/06/24 06:54:53;;;;;;;28.92;17.33;;;16.00;99.90;;;;;;6758135;88;20217;-78
2021/06/24 07:04:53;;;;;;;26.52;17.15;;;16.00;99.90;;;;;;6757309;88;20679;-78
2021/06/24 07:14:54;;;;;;;28.35;16.60;;;16.10;99.90;;;;;;6757804;88;20610;-77
2021/06/24 07:24:54;;;;;;;29.10;16.33;;;16.40;99.90;;;;;;6758088;88;20205;-78
2021/06/24 07:34:55;;;;;;;26.58;16.98;;;16.60;99.90;;;;;;6763154;87;20183;-79
2021/06/24 07:44:55;;;;;;;26.17;15.75;;;17.30;99.90;;;;;;6775465;87;20273;-79
2021/06/24 07:54:56;;;;;;;26.50;15.35;;;18.10;99.90;;;;;;6775041;87;20176;-78
2021/06/24 08:04:57;;;;;;;27.02;15.38;;;18.30;99.90;;;;;;6776089;87;20199;-79
2021/06/24 08:14:58;;;;;;;21.48;14.75;;;18.60;99.90;;;;;;6775398;87;20196;-79
2021/06/24 08:24:58;;;;;;;25.35;17.58;;;18.80;99.90;;;;;;6774302;87;20191;-78
2021/06/24 08:34:59;;;;;;;27.50;17.65;;;18.70;99.90;;;;;;6770135;87;20199;-79
2021/06/24 08:45:02;;;;;;;24.75;18.30;;;18.50;99.90;;;;;;6785200;87;20316;-78
2021/06/24 08:55:03;;;;;;;26.35;18.95;;;18.40;99.90;;;;;;6774378;87;20188;-76
2021/06/24 09:05:05;;;;;;;25.83;19.62;;;18.40;99.90;;;;;;6786584;87;20188;-77
2021/06/24 09:15:06;;;;;;;26.90;20.48;;;18.70;99.90;;;;;;6769674;87;20312;-77
2021/06/24 09:25:19;;;;;;;27.08;18.00;;;19.10;99.90;;;;;;6771303;87;20204;-77
2021/06/24 09:35:28;;;;;;;25.60;18.35;;;19.50;99.90;;;;;;6770620;87;20264;-77
2021/06/24 09:45:29;;;;;;;23.83;17.02;;;20.50;99.90;;;;;;6764685;87;20356;-78
2021/06/24 09:55:31;;;;;;;21.47;18.20;;;21.00;99.90;;;;;;6769183;87;20402;-77
2021/06/24 10:05:33;;;;;;;23.17;18.30;;;22.40;99.90;;;;;;6770337;87;20545;-77
2021/06/24 10:15:35;;;;;;;20.75;16.40;;;23.00;99.90;;;;;;6770595;87;20204;-77
2021/06/24 10:25:38;;;;;;;22.13;17.55;;;23.30;99.90;;;;;;6770437;87;20224;-77
2021/06/24 10:36:03;;;;;;;27.90;21.03;;;22.50;99.90;;;;;;6771981;87;20485;-77
2021/06/24 10:46:12;;;;;;;24.80;18.42;;;21.90;99.90;;;;;;6767780;87;20187;-77
2021/06/24 10:56:35;;;;;;;25.58;18.95;;;21.50;99.90;;;;;;6769193;87;20220;-75
2021/06/24 11:06:51;;;;;;;34.70;22.48;;;21.30;99.90;;;;;;6772021;87;20190;-78
2021/06/24 11:16:51;;;;;;;30.12;21.08;;;20.90;99.90;;;;;;6773974;87;20253;-78
2021/06/24 11:26:54;;;;;;;27.70;19.33;;;21.10;99.90;;;;;;6774749;87;20192;-78
2021/06/24 11:37:03;;;;;;;18.75;15.10;;;21.50;99.90;;;;;;6774268;87;20619;-78
2021/06/24 11:47:11;;;;;;;20.08;16.27;;;21.70;99.90;;;;;;6773044;87;20416;-79
2021/06/24 12:07:34;;;;;;;15.55;11.23;;;21.50;99.90;;;;;;6773426;87;20227;-78
2021/06/24 12:17:37;;;;;;;16.27;10.67;;;21.50;99.90;;;;;;6775080;87;20205;-78
2021/06/24 12:27:40;;;;;;;15.30;11.20;;;21.40;99.90;;;;;;6774261;87;20550;-78
2021/06/24 12:37:44;;;;;;;13.95;11.02;;;21.30;99.90;;;;;;6772008;87;20702;-78
2021/06/24 12:47:46;;;;;;;14.13;11.32;;;21.40;99.90;;;;;;6772383;87;20670;-79
2021/06/24 12:57:52;;;;;;;13.62;11.27;;;21.80;99.90;;;;;;6776018;87;20805;-78
2021/06/24 13:08:07;;;;;;;15.07;11.93;;;22.10;99.90;;;;;;6777914;87;20224;-79
2021/06/24 13:18:08;;;;;;;14.60;11.48;;;22.20;99.90;;;;;;6762891;87;20208;-78
2021/06/24 13:28:09;;;;;;;13.48;9.88;;;22.50;99.90;;;;;;6775577;87;20211;-78
2021/06/24 13:38:13;;;;;;;12.55;9.45;;;22.80;99.90;;;;;;6776570;87;20296;-79
2021/06/24 13:48:14;;;;;;;13.13;10.15;;;23.00;99.90;;;;;;6765341;87;20183;-78
2021/06/24 13:58:20;;;;;;;17.23;9.20;;;23.80;99.90;;;;;;6770970;87;20184;-78
2021/06/24 14:08:21;;;;;;;9.88;6.80;;;24.30;99.90;;;;;;6786738;87;20251;-79
2021/06/24 14:18:22;;;;;;;7.55;5.68;;;24.90;99.90;;;;;;6780584;87;20265;-79
2021/06/24 14:28:22;;;;;;;7.78;5.85;;;24.60;99.90;;;;;;6788310;87;20644;-79
2021/06/24 14:38:23;;;;;;;9.80;4.50;;;23.60;99.90;;;;;;6774645;87;20214;-79
2021/06/24 14:48:25;;;;;;;5.90;4.50;;;23.00;99.90;;;;;;6774613;87;20203;-78
2021/06/24 14:58:25;;;;;;;5.15;4.35;;;22.20;99.90;;;;;;6775316;87;20332;-78
2021/06/24 15:08:26;;;;;;;3.73;3.07;;;21.20;99.90;;;;;;6779703;87;20179;-78
2021/06/24 15:18:27;;;;;;;3.08;2.50;;;20.60;99.90;;;;;;6776099;87;20692;-78
2021/06/24 15:28:28;;;;;;;4.18;3.08;;;20.80;99.90;;;;;;6775146;87;20650;-78
2021/06/24 15:38:30;;;;;;;5.57;3.22;;;20.40;99.90;;;;;;6753654;88;20202;-79
2021/06/24 15:48:30;;;;;;;4.30;3.30;;;20.70;99.90;;;;;;6765769;87;20322;-78
2021/06/24 15:58:31;;;;;;;4.50;3.30;;;20.90;99.90;;;;;;6774489;87;20256;-79
2021/06/24 16:08:33;;;;;;;3.85;3.20;;;21.10;99.90;;;;;;6771673;87;20214;-77
2021/06/24 16:18:35;;;;;;;5.87;3.22;;;21.30;99.90;;;;;;6772647;87;20697;-78
2021/06/24 16:28:36;;;;;;;3.87;3.15;;;21.60;99.90;;;;;;6773616;87;20281;-79
2021/06/24 16:38:36;;;;;;;5.05;4.05;;;21.60;99.90;;;;;;6775753;87;20205;-78
2021/06/24 16:48:37;;;;;;;5.03;3.80;;;21.90;99.90;;;;;;6776330;87;20211;-79
2021/06/24 16:58:37;;;;;;;5.07;3.92;;;22.20;99.90;;;;;;6776664;87;20705;-79
2021/06/24 17:08:38;;;;;;;5.43;4.10;;;22.60;99.90;;;;;;6771508;87;20195;-77
2021/06/24 17:18:39;;;;;;;5.47;4.07;;;22.40;99.90;;;;;;6770776;87;20270;-78
2021/06/24 17:28:40;;;;;;;4.97;4.15;;;23.90;99.90;;;;;;6767598;87;20186;-78
2021/06/24 17:38:40;;;;;;;5.47;4.00;;;23.90;99.90;;;;;;6770341;87;20251;-77
2021/06/24 17:48:41;;;;;;;5.27;4.50;;;22.70;99.90;;;;;;6772110;87;20685;-78
2021/06/24 17:58:42;;;;;;;6.18;4.57;;;22.20;99.90;;;;;;6772299;87;20214;-78
2021/06/24 18:08:42;;;;;;;7.75;4.50;;;21.50;99.90;;;;;;6771890;87;20208;-77
2021/06/24 18:18:43;;;;;;;4.87;3.78;;;21.50;99.90;;;;;;6766357;87;20635;-77
2021/06/24 18:28:44;;;;;;;5.32;4.07;;;21.30;99.90;;;;;;6770799;87;20933;-77
2021/06/24 18:38:45;;;;;;;5.47;4.37;;;21.10;99.90;;;;;;6770364;87;20192;-77
2021/06/24 18:48:47;;;;;;;8.68;5.87;;;20.70;99.90;;;;;;6766512;87;20216;-77
2021/06/24 18:58:47;;;;;;;14.90;10.30;;;20.40;99.90;;;;;;6774191;87;20210;-78
2021/06/24 19:08:48;;;;;;;18.75;12.98;;;20.10;99.90;;;;;;6777605;87;20261;-79
2021/06/24 19:18:48;;;;;;;20.40;15.07;;;19.90;99.90;;;;;;6777099;87;20233;-79
2021/06/24 19:28:49;;;;;;;22.92;17.70;;;19.40;99.90;;;;;;6783270;87;20183;-78
2021/06/24 19:38:50;;;;;;;30.92;20.70;;;18.70;99.90;;;;;;6781459;87;20207;-79
2021/06/24 19:48:51;;;;;;;33.13;21.23;;;18.40;99.90;;;;;;6787421;87;20294;-77
2021/06/24 19:58:51;;;;;;;30.90;20.98;;;18.10;99.90;;;;;;6780367;87;20179;-78
2021/06/24 20:08:52;;;;;;;32.97;21.77;;;18.00;99.90;;;;;;6780995;87;20212;-78
2021/06/24 20:18:53;;;;;;;36.63;23.90;;;17.70;99.90;;;;;;6776026;87;20195;-78
2021/06/24 20:28:53;;;;;;;37.03;24.30;;;17.50;99.90;;;;;;6778973;87;20578;-79
2021/06/24 20:38:54;;;;;;;35.07;22.20;;;17.30;99.90;;;;;;6771482;87;20214;-78
2021/06/24 20:48:54;;;;;;;33.95;20.62;;;17.20;99.90;;;;;;6777807;87;20495;-78
2021/06/24 20:58:55;;;;;;;36.78;23.05;;;17.20;99.90;;;;;;6779013;87;20293;-78
2021/06/24 21:08:56;;;;;;;31.62;20.88;;;17.10;99.90;;;;;;6781542;87;20352;-78
2021/06/24 21:18:56;;;;;;;30.60;18.63;;;17.10;99.90;;;;;;6783291;87;20472;-78
2021/06/24 21:28:57;;;;;;;30.02;18.33;;;17.00;99.90;;;;;;6783617;87;21014;-79
2021/06/24 21:38:57;;;;;;;27.67;18.52;;;17.10;99.90;;;;;;6781850;87;20178;-78
2021/06/24 21:48:58;;;;;;;28.62;18.52;;;17.00;99.90;;;;;;6781840;87;20191;-78
2021/06/24 21:58:58;;;;;;;29.10;18.08;;;16.80;99.90;;;;;;6780527;87;20242;-77
2021/06/24 22:08:59;;;;;;;28.83;18.70;;;16.80;99.90;;;;;;6771826;87;20635;-77
2021/06/24 22:19:00;;;;;;;35.05;19.87;;;16.50;99.90;;;;;;6778213;87;20356;-78
2021/06/24 22:29:00;;;;;;;35.58;20.80;;;16.30;99.90;;;;;;6777885;87;21001;-78
2021/06/24 22:39:02;;;;;;;36.53;21.35;;;16.20;99.90;;;;;;6774269;87;20248;-78
2021/06/24 22:49:03;;;;;;;42.90;24.75;;;16.20;99.90;;;;;;6778763;87;21023;-78
2021/06/24 22:59:03;;;;;;;57.92;28.55;;;16.10;99.90;;;;;;6772448;87;20215;-78
2021/06/24 23:09:04;;;;;;;45.63;25.80;;;15.80;99.90;;;;;;6770795;87;20305;-78
2021/06/24 23:19:05;;;;;;;42.95;23.87;;;15.80;99.90;;;;;;6773669;87;20623;-78
2021/06/24 23:29:07;;;;;;;46.13;24.45;;;15.80;99.90;;;;;;6771276;87;20288;-77
2021/06/24 23:39:07;;;;;;;39.28;23.12;;;15.70;99.90;;;;;;6771958;87;20195;-78
2021/06/24 23:49:08;;;;;;;40.38;23.20;;;15.70;99.90;;;;;;6771408;87;20652;-78
2021/06/24 23:59:08;;;;;;;38.83;21.67;;;15.50;99.90;;;;;;6768718;87;20221;-77
